createdAt,value
2023-02-09T00:01:21.721Z,31.27
2023-02-09T00:03:50.441Z,24.83
2023-02-09T00:06:23.059Z,28.60
2023-02-09T00:08:52.021Z,27.57
2023-02-09T00:11:42.653Z,24.77
2023-02-09T00:14:10.057Z,28.80
2023-02-09T00:16:38.173Z,27.07
2023-02-09T00:19:06.352Z,24.40
2023-02-09T00:21:35.974Z,30.80
2023-02-09T00:24:04.399Z,25.57
2023-02-09T00:26:32.598Z,27.37
2023-02-09T00:29:00.762Z,30.87
2023-02-09T00:31:28.996Z,27.87
2023-02-09T00:33:57.172Z,27.57
2023-02-09T00:36:27.449Z,29.83
2023-02-09T00:38:57.343Z,30.23
2023-02-09T00:41:39.334Z,27.70
2023-02-09T00:44:07.417Z,29.90
2023-02-09T00:46:35.590Z,26.83
2023-02-09T00:49:04.128Z,25.07
2023-02-09T00:51:34.166Z,25.30
2023-02-09T00:54:05.407Z,29.73
2023-02-09T00:56:33.688Z,23.97
2023-02-09T00:59:01.857Z,24.50
2023-02-09T01:01:30.242Z,25.27
2023-02-09T01:03:58.654Z,25.00
2023-02-09T01:06:26.880Z,24.10
2023-02-09T01:08:55.111Z,32.80
2023-02-09T01:11:28.203Z,26.83
2023-02-09T01:13:57.992Z,28.03
2023-02-09T01:16:28.706Z,24.43
2023-02-09T01:18:57.074Z,27.83
2023-02-09T01:21:25.869Z,27.10
2023-02-09T01:23:54.032Z,25.13
2023-02-09T01:26:22.278Z,29.03
2023-02-09T01:28:53.269Z,23.30
2023-02-09T01:31:25.819Z,22.10
2023-02-09T01:33:55.437Z,27.03
2023-02-09T01:36:23.825Z,24.03
2023-02-09T01:38:52.077Z,25.33
2023-02-09T01:41:20.168Z,27.67
2023-02-09T01:43:59.101Z,29.10
2023-02-09T01:46:30.754Z,26.80
2023-02-09T01:49:05.160Z,26.03
2023-02-09T01:51:37.454Z,27.10
2023-02-09T01:54:09.233Z,28.43
2023-02-09T01:56:40.403Z,34.20
2023-02-09T01:59:11.196Z,30.33
2023-02-09T02:01:41.486Z,26.50
2023-02-09T02:04:09.894Z,27.27
2023-02-09T02:06:38.638Z,28.67
2023-02-09T02:09:12.308Z,26.00
2023-02-09T02:11:42.337Z,25.33
2023-02-09T02:17:45.945Z,28.37
2023-02-09T02:20:50.731Z,23.37
2023-02-09T02:23:27.117Z,26.60
2023-02-09T02:26:26.625Z,25.27
2023-02-09T02:29:30.638Z,24.20
2023-02-09T02:32:40.736Z,26.00
2023-02-09T02:35:19.124Z,26.87
2023-02-09T02:38:00.224Z,26.87
2023-02-09T02:40:41.193Z,30.23
2023-02-09T02:43:19.510Z,32.40
2023-02-09T02:45:50.728Z,32.17
2023-02-09T02:48:29.107Z,30.13
2023-02-09T02:51:03.900Z,26.20
2023-02-09T02:53:34.956Z,27.00
2023-02-09T02:56:08.345Z,30.43
2023-02-09T02:58:39.466Z,24.97
2023-02-09T03:01:10.838Z,25.60
2023-02-09T03:03:40.518Z,34.57
2023-02-09T03:06:11.900Z,24.20
2023-02-09T03:08:52.289Z,29.80
2023-02-09T03:11:22.320Z,28.33
2023-02-09T03:14:14.365Z,31.27
2023-02-09T03:16:47.292Z,26.50
2023-02-09T03:19:24.189Z,28.40
2023-02-09T03:21:58.027Z,26.17
2023-02-09T03:24:35.984Z,29.57
2023-02-09T03:27:11.730Z,27.93
2023-02-09T03:29:42.320Z,26.20
2023-02-09T03:32:10.686Z,26.37
2023-02-09T03:34:39.061Z,27.57
2023-02-09T03:37:08.761Z,25.27
2023-02-09T03:39:36.847Z,24.03
2023-02-09T03:42:05.238Z,26.10
2023-02-09T03:44:33.446Z,27.07
2023-02-09T03:47:03.443Z,29.67
2023-02-09T03:49:33.707Z,32.83
2023-02-09T03:52:02.946Z,33.53
2023-02-09T03:54:34.332Z,29.10
2023-02-09T03:57:03.055Z,32.03
2023-02-09T03:59:35.483Z,32.90
2023-02-09T04:02:04.986Z,31.47
2023-02-09T04:04:33.189Z,32.47
2023-02-09T04:07:01.514Z,28.87
2023-02-09T04:09:30.017Z,32.03
2023-02-09T04:11:59.447Z,28.83
2023-02-09T04:14:27.729Z,30.70
2023-02-09T04:16:55.907Z,29.50
2023-02-09T04:19:24.072Z,24.30
2023-02-09T04:21:52.160Z,30.77
2023-02-09T04:24:28.811Z,29.10
2023-02-09T04:26:57.020Z,28.07
2023-02-09T04:29:26.928Z,26.97
2023-02-09T04:31:55.447Z,31.20
2023-02-09T04:34:24.617Z,33.33
2023-02-09T04:36:52.770Z,26.90
2023-02-09T04:39:20.936Z,32.10
2023-02-09T04:41:49.070Z,26.40
2023-02-09T04:44:17.196Z,28.27
2023-02-09T04:46:46.880Z,29.97
2023-02-09T04:49:15.102Z,31.93
2023-02-09T04:51:43.451Z,33.73
2023-02-09T04:54:11.615Z,30.40
2023-02-09T04:56:39.716Z,34.23
2023-02-09T04:59:25.336Z,33.27
2023-02-09T05:01:54.985Z,31.37
2023-02-09T05:04:23.488Z,36.27
2023-02-09T05:06:51.695Z,38.80
2023-02-09T05:09:19.755Z,36.80
2023-02-09T05:11:47.894Z,33.97
2023-02-09T05:14:16.455Z,31.37
2023-02-09T05:16:44.531Z,30.00
2023-02-09T05:19:14.452Z,29.47
2023-02-09T05:21:42.848Z,31.50
2023-02-09T05:24:11.128Z,35.30
2023-02-09T05:26:39.468Z,35.37
2023-02-09T05:29:07.692Z,29.97
2023-02-09T05:31:36.040Z,36.97
2023-02-09T05:34:04.360Z,27.93
2023-02-09T05:36:33.947Z,33.33
2023-02-09T05:39:02.073Z,31.20
2023-02-09T05:41:47.814Z,32.40
2023-02-09T05:44:16.299Z,37.23
2023-02-09T05:46:44.417Z,30.40
2023-02-09T05:49:12.624Z,31.33
2023-02-09T05:51:42.185Z,31.03
2023-02-09T05:54:10.647Z,32.47
2023-02-09T05:56:39.081Z,32.90
2023-02-09T05:59:07.313Z,29.17
2023-02-09T06:01:35.549Z,36.83
2023-02-09T06:04:03.848Z,32.37
2023-02-09T06:06:32.065Z,28.67
2023-02-09T06:09:01.662Z,29.77
2023-02-09T06:11:30.015Z,32.23
2023-02-09T06:13:58.244Z,38.90
2023-02-09T06:16:26.626Z,25.90
2023-02-09T06:18:55.271Z,36.20
2023-02-09T06:21:23.950Z,32.13
2023-02-09T06:23:52.099Z,32.73
2023-02-09T06:26:21.881Z,37.67
2023-02-09T06:28:50.210Z,33.77
2023-02-09T06:31:18.406Z,32.97
2023-02-09T06:33:46.589Z,30.43
2023-02-09T06:36:14.740Z,32.83
2023-02-09T06:38:42.954Z,36.90
2023-02-09T06:41:11.055Z,32.43
2023-02-09T06:43:40.593Z,37.17
2023-02-09T06:46:10.167Z,34.83
2023-02-09T06:48:38.569Z,31.23
2023-02-09T06:51:10.015Z,36.30
2023-02-09T06:53:39.326Z,37.70
2023-02-09T06:56:08.386Z,38.50
2023-02-09T06:58:38.030Z,34.10
2023-02-09T07:01:09.736Z,44.87
2023-02-09T07:03:37.933Z,41.47
2023-02-09T07:06:08.016Z,38.37
2023-02-09T07:08:36.742Z,38.47
2023-02-09T07:11:05.957Z,35.70
2023-02-09T07:13:34.721Z,40.23
2023-02-09T07:16:04.428Z,34.73
2023-02-09T07:18:34.490Z,37.50
2023-02-09T07:21:05.487Z,36.60
2023-02-09T07:23:33.874Z,35.20
2023-02-09T07:26:06.262Z,38.43
2023-02-09T07:28:35.039Z,43.23
2023-02-09T07:31:05.853Z,37.20
2023-02-09T07:33:35.744Z,34.17
2023-02-09T07:36:05.720Z,48.00
2023-02-09T07:38:34.825Z,39.73
2023-02-09T07:41:04.812Z,43.60
2023-02-09T07:43:33.797Z,50.17
2023-02-09T07:46:02.801Z,45.50
2023-02-09T07:48:31.460Z,46.70
2023-02-09T07:51:01.234Z,44.00
2023-02-09T07:53:30.096Z,48.67
2023-02-09T07:55:58.431Z,47.53
2023-02-09T07:58:26.534Z,39.23
2023-02-09T08:00:54.657Z,35.43
2023-02-09T08:03:24.909Z,44.50
2023-02-09T08:05:59.406Z,51.73
2023-02-09T08:08:28.961Z,50.57
2023-02-09T08:10:59.421Z,53.33
2023-02-09T08:13:30.216Z,52.27
2023-02-09T08:16:03.044Z,41.47
2023-02-09T08:18:35.808Z,39.27
2023-02-09T08:21:05.976Z,45.20
2023-02-09T08:23:38.946Z,44.70
2023-02-09T08:26:10.489Z,48.67
2023-02-09T08:28:44.899Z,47.57
2023-02-09T08:31:14.227Z,50.33
2023-02-09T08:33:42.637Z,48.83
2023-02-09T08:36:13.317Z,42.80
2023-02-09T08:38:43.053Z,44.90
2023-02-09T08:41:13.986Z,49.13
2023-02-09T08:43:42.298Z,46.60
2023-02-09T08:46:12.861Z,44.23
2023-02-09T08:48:43.582Z,44.73
2023-02-09T08:51:14.460Z,41.17
2023-02-09T08:53:47.791Z,32.97
2023-02-09T08:56:15.976Z,36.90
2023-02-09T08:58:44.253Z,44.03
2023-02-09T09:01:13.601Z,39.23
2023-02-09T09:03:42.389Z,39.07
2023-02-09T09:06:12.581Z,39.40
2023-02-09T09:08:41.687Z,37.70
2023-02-09T09:11:13.177Z,35.13
2023-02-09T09:13:42.022Z,41.13
2023-02-09T09:16:16.267Z,44.80
2023-02-09T09:18:45.505Z,40.17
2023-02-09T09:21:13.927Z,39.47
2023-02-09T09:23:42.138Z,38.80
2023-02-09T09:26:11.744Z,41.10
2023-02-09T09:28:40.177Z,42.53
2023-02-09T09:31:09.952Z,42.63
2023-02-09T09:33:38.613Z,39.97
2023-02-09T09:36:08.158Z,50.77
2023-02-09T09:38:37.103Z,42.87
2023-02-09T09:41:06.269Z,43.80
2023-02-09T09:43:39.441Z,45.03
2023-02-09T09:46:13.253Z,46.27
2023-02-09T09:48:45.726Z,47.30
2023-02-09T09:51:19.830Z,46.70
2023-02-09T09:53:52.175Z,52.70
2023-02-09T09:56:22.470Z,47.10
2023-02-09T09:58:52.574Z,49.40
2023-02-09T10:01:23.416Z,46.60
2023-02-09T10:03:51.543Z,52.80
2023-02-09T10:06:22.357Z,49.57
2023-02-09T10:08:56.483Z,52.77
2023-02-09T10:11:30.386Z,48.97
2023-02-09T10:14:00.013Z,41.23
2023-02-09T10:16:34.500Z,45.90
2023-02-09T10:19:05.301Z,39.50
2023-02-09T10:21:36.636Z,45.60
2023-02-09T10:24:13.071Z,43.43
2023-02-09T10:26:43.038Z,47.07
2023-02-09T10:29:28.436Z,44.30
2023-02-09T10:32:04.435Z,36.47
2023-02-09T10:34:41.658Z,39.73
2023-02-09T10:37:20.829Z,40.20
2023-02-09T10:40:01.961Z,40.70
2023-02-09T10:42:32.641Z,41.83
2023-02-09T10:45:09.568Z,34.70
2023-02-09T10:47:37.682Z,37.33
2023-02-09T10:50:17.120Z,34.40
2023-02-09T10:52:56.349Z,38.93
2023-02-09T10:55:28.643Z,55.00
2023-02-09T10:58:20.876Z,40.17
2023-02-09T11:00:54.843Z,42.13
2023-02-09T11:03:25.314Z,39.87
2023-02-09T11:06:02.866Z,41.67
2023-02-09T11:08:43.086Z,37.77
2023-02-09T11:11:27.864Z,36.17
2023-02-09T11:13:56.035Z,35.07
2023-02-09T11:16:44.358Z,37.20
2023-02-09T11:19:44.071Z,38.73
2023-02-09T11:22:15.191Z,39.40
2023-02-09T11:24:52.319Z,34.57
2023-02-09T11:27:38.000Z,32.00
2023-02-09T11:30:21.925Z,34.10
2023-02-09T11:32:56.533Z,35.07
2023-02-09T11:35:29.526Z,32.87
2023-02-09T11:38:02.745Z,34.10
2023-02-09T11:40:37.341Z,36.90
2023-02-09T11:43:19.389Z,35.40
2023-02-09T11:45:49.525Z,31.80
2023-02-09T11:48:24.944Z,43.67
2023-02-09T11:51:00.062Z,41.90
2023-02-09T11:53:35.872Z,36.83
2023-02-09T11:56:06.267Z,35.83
2023-02-09T11:58:45.714Z,41.20
2023-02-09T12:01:27.333Z,37.63
2023-02-09T12:04:04.134Z,37.70
2023-02-09T12:06:38.916Z,42.67
2023-02-09T12:09:16.863Z,41.70
2023-02-09T12:11:53.922Z,42.53
2023-02-09T12:14:31.989Z,42.40
2023-02-09T12:17:06.361Z,42.27
2023-02-09T12:19:38.919Z,38.00
2023-02-09T12:22:43.144Z,38.67
2023-02-09T12:25:22.667Z,39.47
2023-02-09T12:28:42.258Z,35.63
2023-02-09T12:31:14.517Z,36.20
2023-02-09T12:34:14.792Z,33.27
2023-02-09T12:37:19.782Z,40.13
2023-02-09T12:40:18.540Z,36.37
2023-02-09T12:43:03.588Z,38.70
2023-02-09T12:45:35.473Z,32.73
2023-02-09T12:48:19.264Z,39.40
2023-02-09T12:50:53.619Z,40.50
2023-02-09T12:53:47.905Z,42.33
2023-02-09T12:56:31.057Z,38.80
2023-02-09T12:59:24.125Z,41.70
2023-02-09T13:02:26.194Z,35.83
2023-02-09T13:05:06.709Z,34.50
2023-02-09T13:07:45.793Z,36.50
2023-02-09T13:10:25.512Z,37.67
2023-02-09T13:12:59.631Z,41.23
2023-02-09T13:15:34.509Z,43.90
2023-02-09T13:18:10.089Z,38.93
2023-02-09T13:21:11.302Z,43.00
2023-02-09T13:23:50.728Z,47.40
2023-02-09T13:26:23.870Z,39.37
2023-02-09T13:29:19.407Z,42.40
2023-02-09T13:31:58.107Z,37.53
2023-02-09T13:34:33.369Z,46.50
2023-02-09T13:37:10.978Z,40.27
2023-02-09T13:39:40.838Z,42.43
2023-02-09T13:42:22.621Z,36.50
2023-02-09T13:44:53.548Z,40.23
2023-02-09T13:47:23.282Z,36.27
2023-02-09T13:49:59.741Z,46.33
2023-02-09T13:52:33.375Z,54.63
2023-02-09T13:55:12.486Z,46.80
2023-02-09T13:57:44.499Z,44.77
2023-02-09T14:00:23.681Z,46.37
2023-02-09T14:02:55.075Z,43.10
2023-02-09T14:05:33.390Z,45.70
2023-02-09T14:08:02.630Z,42.80
2023-02-09T14:10:31.905Z,41.47
2023-02-09T14:13:04.964Z,48.47
2023-02-09T14:15:55.377Z,52.23
2023-02-09T14:18:33.353Z,45.13
2023-02-09T14:21:15.995Z,51.40
2023-02-09T14:23:46.404Z,47.80
2023-02-09T14:26:24.805Z,41.03
2023-02-09T14:29:04.916Z,45.13
2023-02-09T14:31:36.378Z,42.57
2023-02-09T14:34:04.674Z,43.37
2023-02-09T14:36:34.297Z,45.73
2023-02-09T14:39:12.775Z,42.77
2023-02-09T14:41:41.032Z,44.70
2023-02-09T14:44:21.494Z,42.63
2023-02-09T14:46:51.591Z,45.80
2023-02-09T14:49:20.561Z,51.40
2023-02-09T14:51:50.025Z,45.80
2023-02-09T14:54:25.138Z,43.13
2023-02-09T14:56:54.265Z,40.60
2023-02-09T14:59:24.686Z,38.53
2023-02-09T15:01:55.042Z,41.87
2023-02-09T15:04:23.614Z,43.27
2023-02-09T15:07:01.738Z,49.00
2023-02-09T15:09:35.447Z,44.43
2023-02-09T15:12:07.467Z,40.27
2023-02-09T15:14:42.056Z,44.43
2023-02-09T15:17:13.775Z,51.27
2023-02-09T15:19:42.144Z,40.90
2023-02-09T15:22:13.569Z,42.20
2023-02-09T15:24:42.327Z,39.03
2023-02-09T15:27:27.392Z,39.30
2023-02-09T15:30:00.118Z,40.00
2023-02-09T15:32:29.415Z,40.90
2023-02-09T15:34:57.567Z,43.03
2023-02-09T15:37:28.329Z,45.83
2023-02-09T15:40:00.228Z,40.93
2023-02-09T15:42:45.835Z,37.27
2023-02-09T15:45:39.103Z,34.70
2023-02-09T15:48:07.986Z,40.17
2023-02-09T15:50:38.988Z,48.23
2023-02-09T15:53:09.254Z,41.53
2023-02-09T15:55:38.336Z,39.00
2023-02-09T15:58:14.626Z,38.47
2023-02-09T16:00:44.484Z,40.27
2023-02-09T16:03:16.330Z,39.73
2023-02-09T16:05:45.240Z,34.80
2023-02-09T16:08:20.505Z,38.60
2023-02-09T16:10:49.319Z,42.33
2023-02-09T16:13:18.788Z,35.20
2023-02-09T16:15:48.992Z,41.83
2023-02-09T16:18:17.109Z,38.83
2023-02-09T16:20:48.457Z,34.80
2023-02-09T16:23:21.236Z,38.50
2023-02-09T16:25:50.979Z,37.47
2023-02-09T16:28:20.373Z,40.00
2023-02-09T16:30:52.766Z,40.03
2023-02-09T16:33:21.766Z,40.93
2023-02-09T16:35:54.046Z,39.73
2023-02-09T16:38:23.730Z,40.37
2023-02-09T16:40:52.846Z,40.27
2023-02-09T16:43:22.042Z,36.83
2023-02-09T16:46:02.759Z,33.43
2023-02-09T16:48:34.535Z,38.23
2023-02-09T16:51:03.329Z,35.37
2023-02-09T16:53:33.782Z,40.57
2023-02-09T16:56:03.847Z,36.87
2023-02-09T16:58:32.367Z,39.73
2023-02-09T17:01:01.966Z,45.63
2023-02-09T17:03:34.792Z,47.43
2023-02-09T17:06:03.412Z,34.40
2023-02-09T17:08:34.639Z,33.13
2023-02-09T17:11:04.571Z,32.30
2023-02-09T17:13:32.695Z,34.60
2023-02-09T17:16:04.649Z,38.03
2023-02-09T17:18:34.946Z,35.90
2023-02-09T17:21:05.349Z,34.93
2023-02-09T17:23:33.594Z,42.40
2023-02-09T17:26:01.834Z,31.70
2023-02-09T17:28:30.661Z,34.00
2023-02-09T17:31:02.937Z,44.23
2023-02-09T17:33:34.327Z,39.07
2023-02-09T17:36:25.138Z,35.77
2023-02-09T17:38:51.849Z,35.50
2023-02-09T17:41:23.341Z,38.13
2023-02-09T17:43:53.630Z,41.53
2023-02-09T17:46:23.121Z,36.07
2023-02-09T17:48:51.290Z,40.73
2023-02-09T17:51:23.116Z,39.73
2023-02-09T17:53:51.245Z,43.30
2023-02-09T17:56:19.443Z,43.97
2023-02-09T17:58:48.922Z,41.77
2023-02-09T18:01:27.047Z,41.27
2023-02-09T18:03:55.652Z,38.17
2023-02-09T18:06:33.528Z,38.40
2023-02-09T18:09:02.609Z,36.43
2023-02-09T18:11:56.513Z,36.17
2023-02-09T18:14:26.395Z,39.30
2023-02-09T18:16:56.015Z,35.90
2023-02-09T18:19:25.046Z,41.57
2023-02-09T18:21:54.768Z,41.33
2023-02-09T18:24:24.992Z,45.63
2023-02-09T18:26:53.206Z,34.60
2023-02-09T18:29:23.585Z,50.00
2023-02-09T18:31:52.216Z,68.50
2023-02-09T18:34:21.670Z,84.30
2023-02-09T18:36:49.766Z,93.03
2023-02-09T18:39:18.122Z,88.57
2023-02-09T18:41:53.791Z,90.00
2023-02-09T18:44:24.476Z,108.63
2023-02-09T18:46:52.628Z,97.37
2023-02-09T18:49:22.090Z,79.47
2023-02-09T18:51:52.324Z,58.10
2023-02-09T18:54:20.628Z,49.03
2023-02-09T18:56:48.756Z,39.57
2023-02-09T18:59:17.727Z,35.10
2023-02-09T19:01:46.545Z,38.53
2023-02-09T19:04:15.102Z,39.60
2023-02-09T19:06:44.525Z,51.53
2023-02-09T19:09:12.705Z,55.73
2023-02-09T19:11:40.776Z,37.73
2023-02-09T19:14:26.212Z,42.87
2023-02-09T19:16:54.481Z,33.90
2023-02-09T19:19:22.640Z,34.00
2023-02-09T19:21:52.290Z,30.23
2023-02-09T19:24:20.618Z,28.80
2023-02-09T19:26:48.785Z,25.07
2023-02-09T19:29:17.540Z,34.20
2023-02-09T19:31:46.520Z,23.50
2023-02-09T19:34:14.616Z,31.00
2023-02-09T19:36:42.750Z,26.87
2023-02-09T19:39:12.692Z,22.87
2023-02-09T19:41:40.864Z,25.03
2023-02-09T19:44:08.970Z,25.00
2023-02-09T19:46:37.104Z,32.03
2023-02-09T19:49:05.233Z,34.40
2023-02-09T19:51:33.328Z,34.73
2023-02-09T19:54:01.624Z,47.40
2023-02-09T19:56:31.157Z,40.67
2023-02-09T19:58:59.316Z,36.03
2023-02-09T20:01:29.571Z,38.00
2023-02-09T20:03:57.744Z,44.87
2023-02-09T20:06:26.217Z,40.10
2023-02-09T20:08:54.338Z,32.73
2023-02-09T20:11:22.780Z,31.67
2023-02-09T20:13:53.786Z,38.93
2023-02-09T20:16:25.367Z,48.10
2023-02-09T20:18:55.124Z,60.67
2023-02-09T20:21:24.824Z,124.73
2023-02-09T20:23:55.159Z,88.83
2023-02-09T20:26:26.661Z,67.50
2023-02-09T20:28:57.585Z,71.23
2023-02-09T20:31:28.269Z,74.73
2023-02-09T20:33:57.091Z,64.17
2023-02-09T20:36:25.875Z,45.80
2023-02-09T20:38:54.096Z,34.50
2023-02-09T20:41:22.516Z,33.93
2023-02-09T20:44:08.194Z,31.70
2023-02-09T20:46:55.261Z,36.90
2023-02-09T20:49:25.828Z,31.57
2023-02-09T20:51:53.909Z,30.83
2023-02-09T20:54:22.034Z,28.43
2023-02-09T20:56:50.138Z,36.77
2023-02-09T20:59:19.030Z,33.40
2023-02-09T21:01:48.925Z,35.00
2023-02-09T21:04:18.029Z,36.40
2023-02-09T21:06:46.151Z,41.67
2023-02-09T21:09:16.427Z,39.37
2023-02-09T21:11:44.582Z,42.33
2023-02-09T21:14:21.863Z,36.57
2023-02-09T21:16:57.446Z,40.07
2023-02-09T21:19:26.457Z,39.83
2023-02-09T21:21:54.898Z,40.77
2023-02-09T21:24:23.564Z,41.80
2023-02-09T21:26:51.632Z,27.67
2023-02-09T21:29:19.768Z,34.57
2023-02-09T21:31:47.987Z,38.90
2023-02-09T21:34:18.051Z,58.80
2023-02-09T21:36:46.173Z,52.33
2023-02-09T21:39:14.550Z,47.23
2023-02-09T21:42:11.448Z,54.00
2023-02-09T21:44:39.569Z,45.47
2023-02-09T21:47:07.897Z,46.03
2023-02-09T21:49:37.431Z,42.67
2023-02-09T21:52:05.882Z,44.30
2023-02-09T21:54:34.215Z,41.43
2023-02-09T21:57:02.808Z,40.33
2023-02-09T21:59:31.436Z,48.60
2023-02-09T22:01:59.722Z,40.50
2023-02-09T22:04:27.861Z,39.53
2023-02-09T22:06:57.377Z,34.83
2023-02-09T22:09:25.537Z,33.60
2023-02-09T22:11:53.640Z,33.30
2023-02-09T22:14:21.730Z,35.97
2023-02-09T22:16:49.914Z,36.80
2023-02-09T22:19:18.047Z,47.63
2023-02-09T22:21:46.095Z,45.00
2023-02-09T22:24:16.668Z,39.67
2023-02-09T22:26:44.948Z,43.77
2023-02-09T22:29:14.333Z,44.07
2023-02-09T22:31:42.821Z,48.63
2023-02-09T22:34:11.038Z,47.07
2023-02-09T22:36:39.936Z,44.90
2023-02-09T22:39:08.809Z,49.23
2023-02-09T22:41:38.441Z,40.20
2023-02-09T22:44:08.549Z,45.77
2023-02-09T22:46:38.767Z,46.37
2023-02-09T22:49:10.577Z,42.53
2023-02-09T22:51:38.722Z,41.53
2023-02-09T22:54:07.487Z,46.03
2023-02-09T22:56:35.692Z,42.17
2023-02-09T22:59:05.164Z,39.20
2023-02-09T23:01:33.313Z,41.30
2023-02-09T23:04:01.595Z,42.87
2023-02-09T23:06:31.033Z,47.93
2023-02-09T23:09:01.328Z,41.60
2023-02-09T23:11:30.524Z,37.53
2023-02-09T23:14:14.513Z,44.63
2023-02-09T23:16:45.691Z,29.07
2023-02-09T23:19:16.358Z,24.07
2023-02-09T23:21:46.697Z,26.17
2023-02-09T23:24:16.494Z,29.93
2023-02-09T23:26:45.458Z,26.27
2023-02-09T23:29:15.542Z,27.87
2023-02-09T23:31:46.298Z,30.37
2023-02-09T23:34:17.317Z,30.60
2023-02-09T23:36:45.903Z,37.17
2023-02-09T23:39:16.586Z,32.07
2023-02-09T23:41:44.781Z,30.43
2023-02-09T23:44:13.153Z,31.27
2023-02-09T23:46:41.643Z,29.53
2023-02-09T23:49:11.672Z,33.13
2023-02-09T23:51:39.888Z,31.13
2023-02-09T23:54:09.043Z,34.87
2023-02-09T23:56:39.977Z,36.13
2023-02-09T23:59:10.140Z,30.30
